createdAt,value
2018-12-18T00:02:13.433Z,23.53
2018-12-18T00:04:44.607Z,21.53
2018-12-18T00:07:15.780Z,22.00
2018-12-18T00:09:44.946Z,24.33
2018-12-18T00:12:14.246Z,24.47
2018-12-18T00:14:43.418Z,24.03
2018-12-18T00:17:12.588Z,26.03
2018-12-18T00:19:41.740Z,27.13
2018-12-18T00:22:10.921Z,27.97
2018-12-18T00:24:40.088Z,27.17
2018-12-18T00:27:09.248Z,26.77
2018-12-18T00:29:38.433Z,26.93
2018-12-18T00:32:07.588Z,27.77
2018-12-18T00:34:36.741Z,33.37
2018-12-18T00:37:06.310Z,28.40
2018-12-18T00:39:35.925Z,27.17
2018-12-18T00:42:05.109Z,26.60
2018-12-18T00:44:34.358Z,31.77
2018-12-18T00:47:03.557Z,31.23
2018-12-18T00:49:32.753Z,30.23
2018-12-18T00:52:01.938Z,32.87
2018-12-18T00:54:31.081Z,31.33
2018-12-18T00:57:00.245Z,33.23
2018-12-18T00:59:29.415Z,29.57
2018-12-18T01:02:01.029Z,30.00
2018-12-18T01:04:30.459Z,31.13
2018-12-18T01:06:59.620Z,31.37
2018-12-18T01:09:28.809Z,35.60
2018-12-18T01:11:58.000Z,35.77
2018-12-18T01:14:27.170Z,37.77
2018-12-18T01:16:56.333Z,36.47
2018-12-18T01:19:25.482Z,34.57
2018-12-18T01:21:55.638Z,35.27
2018-12-18T01:24:24.796Z,36.87
2018-12-18T01:26:53.976Z,36.27
2018-12-18T01:29:29.479Z,30.70
2018-12-18T01:31:58.669Z,34.27
2018-12-18T01:34:27.820Z,35.03
2018-12-18T01:36:56.996Z,29.40
2018-12-18T01:39:26.157Z,31.90
2018-12-18T01:41:55.314Z,34.33
2018-12-18T01:44:24.481Z,38.10
2018-12-18T01:46:53.642Z,35.90
2018-12-18T01:49:22.868Z,30.23
2018-12-18T01:51:52.015Z,33.37
2018-12-18T01:54:22.275Z,32.77
2018-12-18T01:56:51.442Z,32.13
2018-12-18T01:59:20.767Z,33.73
2018-12-18T02:01:49.931Z,28.60
2018-12-18T02:04:19.086Z,34.87
2018-12-18T02:06:48.237Z,33.80
2018-12-18T02:09:18.184Z,30.50
2018-12-18T02:11:47.458Z,33.63
2018-12-18T02:14:16.622Z,35.13
2018-12-18T02:16:45.757Z,34.07
2018-12-18T02:19:14.895Z,34.87
2018-12-18T02:21:44.069Z,37.10
2018-12-18T02:24:13.238Z,36.83
2018-12-18T02:26:42.532Z,34.97
2018-12-18T02:29:11.690Z,33.00
2018-12-18T02:31:40.842Z,33.93
2018-12-18T02:34:13.724Z,34.50
2018-12-18T02:36:41.169Z,33.80
2018-12-18T02:39:10.330Z,33.67
2018-12-18T02:41:39.489Z,30.40
2018-12-18T02:44:08.676Z,30.33
2018-12-18T02:46:37.848Z,31.33
2018-12-18T02:49:07.019Z,29.60
2018-12-18T02:51:36.173Z,30.47
2018-12-18T02:54:05.324Z,32.67
2018-12-18T02:56:34.491Z,29.00
2018-12-18T02:59:03.793Z,32.23
2018-12-18T03:01:32.960Z,30.70
2018-12-18T03:04:02.135Z,31.33
2018-12-18T03:06:31.302Z,33.93
2018-12-18T03:09:00.462Z,33.33
2018-12-18T03:11:29.597Z,28.83
2018-12-18T03:13:58.869Z,29.13
2018-12-18T03:16:28.088Z,27.17
2018-12-18T03:18:57.299Z,25.43
2018-12-18T03:21:26.488Z,27.23
2018-12-18T03:23:55.652Z,25.77
2018-12-18T03:26:24.817Z,26.20
2018-12-18T03:28:54.092Z,29.60
2018-12-18T03:31:23.880Z,29.07
2018-12-18T03:33:53.153Z,27.07
2018-12-18T03:36:22.309Z,28.27
2018-12-18T03:38:51.482Z,28.77
2018-12-18T03:41:20.888Z,28.85
2018-12-18T03:43:50.067Z,29.13
2018-12-18T03:46:19.242Z,27.17
2018-12-18T03:48:48.389Z,27.97
2018-12-18T03:51:17.547Z,27.93
2018-12-18T03:53:46.719Z,22.97
2018-12-18T03:56:15.885Z,29.80
2018-12-18T03:58:45.080Z,25.77
2018-12-18T04:01:14.246Z,28.93
2018-12-18T04:03:43.429Z,27.20
2018-12-18T04:06:12.601Z,28.43
2018-12-18T04:08:41.755Z,25.93
2018-12-18T04:11:11.045Z,27.43
2018-12-18T04:13:40.240Z,30.23
2018-12-18T04:16:09.401Z,28.27
2018-12-18T04:18:38.573Z,28.97
2018-12-18T04:21:07.923Z,32.07
2018-12-18T04:23:37.080Z,32.60
2018-12-18T04:26:06.231Z,29.13
2018-12-18T04:28:35.384Z,36.07
2018-12-18T04:31:04.573Z,35.50
2018-12-18T04:33:33.733Z,31.60
2018-12-18T04:36:02.901Z,31.10
2018-12-18T04:38:32.074Z,30.20
2018-12-18T04:41:01.435Z,30.23
2018-12-18T04:43:30.603Z,28.80
2018-12-18T04:45:59.753Z,29.37
2018-12-18T04:48:28.900Z,28.37
2018-12-18T04:50:58.072Z,28.93
2018-12-18T04:53:27.234Z,27.70
2018-12-18T04:55:56.420Z,32.17
2018-12-18T04:58:25.722Z,26.07
2018-12-18T05:00:54.885Z,30.13
2018-12-18T05:03:24.073Z,29.43
2018-12-18T05:05:53.258Z,30.60
2018-12-18T05:08:22.412Z,28.63
2018-12-18T05:10:51.569Z,24.37
2018-12-18T05:13:20.738Z,26.10
2018-12-18T05:15:51.000Z,23.23
2018-12-18T05:18:20.192Z,23.00
2018-12-18T05:20:49.354Z,24.93
2018-12-18T05:23:18.537Z,23.23
2018-12-18T05:25:47.720Z,24.53
2018-12-18T05:28:16.878Z,28.10
2018-12-18T05:30:46.038Z,23.17
2018-12-18T05:33:15.205Z,25.80
2018-12-18T05:35:44.365Z,26.37
2018-12-18T05:38:13.532Z,25.30
2018-12-18T05:40:42.696Z,25.10
2018-12-18T05:43:11.900Z,50.30
2018-12-18T05:45:41.080Z,34.13
2018-12-18T05:48:10.252Z,32.33
2018-12-18T05:50:39.420Z,31.13
2018-12-18T05:53:08.710Z,22.97
2018-12-18T05:55:37.907Z,21.23
2018-12-18T05:58:07.063Z,22.67
2018-12-18T06:00:37.302Z,23.73
2018-12-18T06:03:06.465Z,24.43
2018-12-18T06:05:35.644Z,26.50
2018-12-18T06:08:04.830Z,24.20
2018-12-18T06:10:34.122Z,25.40
2018-12-18T06:13:03.305Z,25.63
2018-12-18T06:15:32.497Z,29.37
2018-12-18T06:18:01.682Z,27.27
2018-12-18T06:20:30.833Z,28.23
2018-12-18T06:22:59.994Z,21.50
2018-12-18T06:25:29.166Z,23.10
2018-12-18T06:27:58.372Z,26.87
2018-12-18T06:30:27.576Z,27.60
2018-12-18T06:32:56.767Z,26.73
2018-12-18T06:35:25.985Z,26.20
2018-12-18T06:37:55.195Z,26.53
2018-12-18T06:40:24.359Z,29.30
2018-12-18T06:42:53.525Z,22.90
2018-12-18T06:45:22.701Z,21.07
2018-12-18T06:47:51.854Z,22.07
2018-12-18T06:50:21.014Z,33.20
2018-12-18T06:52:50.178Z,31.43
2018-12-18T06:55:19.388Z,41.00
2018-12-18T06:57:48.544Z,41.50
2018-12-18T07:00:17.692Z,41.73
2018-12-18T07:02:46.863Z,31.40
2018-12-18T07:05:16.867Z,36.20
2018-12-18T07:07:46.403Z,27.17
2018-12-18T07:10:15.618Z,27.70
2018-12-18T07:12:44.785Z,26.23
2018-12-18T07:15:13.953Z,25.37
2018-12-18T07:17:43.125Z,24.57
2018-12-18T07:20:12.311Z,25.03
2018-12-18T07:22:41.497Z,24.70
2018-12-18T07:25:10.673Z,23.77
2018-12-18T07:27:39.824Z,33.30
2018-12-18T07:30:09.367Z,33.00
2018-12-18T07:32:38.578Z,31.20
2018-12-18T07:35:07.921Z,30.53
2018-12-18T07:37:37.156Z,28.83
2018-12-18T07:40:06.757Z,27.13
2018-12-18T07:42:36.042Z,28.13
2018-12-18T07:45:05.860Z,25.77
2018-12-18T07:47:35.317Z,28.57
2018-12-18T07:50:05.498Z,25.50
2018-12-18T07:52:34.679Z,24.60
2018-12-18T07:55:04.123Z,24.47
2018-12-18T07:57:33.292Z,26.07
2018-12-18T08:00:02.475Z,27.27
2018-12-18T08:02:33.238Z,26.03
2018-12-18T08:05:02.450Z,38.60
2018-12-18T08:07:31.617Z,49.43
2018-12-18T08:10:00.787Z,47.03
2018-12-18T08:12:29.952Z,45.53
2018-12-18T08:14:59.121Z,59.33
2018-12-18T08:17:28.293Z,55.57
2018-12-18T08:19:57.452Z,40.47
2018-12-18T08:22:26.614Z,41.37
2018-12-18T08:24:55.769Z,44.60
2018-12-18T08:27:25.062Z,54.00
2018-12-18T08:29:54.217Z,50.70
2018-12-18T08:32:24.128Z,50.43
2018-12-18T08:34:53.300Z,56.13
2018-12-18T08:37:22.477Z,52.60
2018-12-18T08:39:51.645Z,56.10
2018-12-18T08:42:21.071Z,54.07
2018-12-18T08:44:50.283Z,52.33
2018-12-18T08:47:19.512Z,49.13
2018-12-18T08:49:48.676Z,49.07
2018-12-18T08:52:17.923Z,40.27
2018-12-18T08:54:47.181Z,23.73
2018-12-18T08:57:16.357Z,31.53
2018-12-18T08:59:45.513Z,25.67
2018-12-18T09:02:14.712Z,19.53
2018-12-18T09:04:43.893Z,23.70
2018-12-18T09:07:13.079Z,20.53
2018-12-18T09:09:42.239Z,19.33
2018-12-18T09:12:16.386Z,18.17
2018-12-18T09:14:51.748Z,17.50
2018-12-18T09:17:26.626Z,17.77
2018-12-18T09:19:55.822Z,18.60
2018-12-18T09:22:24.997Z,19.20
2018-12-18T09:24:54.161Z,20.10
2018-12-18T09:27:23.319Z,16.83
2018-12-18T09:29:52.481Z,19.90
2018-12-18T09:32:21.666Z,19.80
2018-12-18T09:34:50.833Z,19.00
2018-12-18T09:37:20.780Z,20.90
2018-12-18T09:39:49.937Z,21.27
2018-12-18T09:42:24.357Z,19.30
2018-12-18T09:44:53.538Z,21.20
2018-12-18T09:47:22.696Z,21.73
2018-12-18T09:49:52.037Z,24.50
2018-12-18T09:52:21.221Z,24.00
2018-12-18T09:54:50.493Z,22.63
2018-12-18T09:57:25.047Z,22.67
2018-12-18T09:59:54.235Z,23.83
2018-12-18T10:02:23.603Z,23.70
2018-12-18T10:04:52.770Z,21.97
2018-12-18T10:07:21.931Z,22.60
2018-12-18T10:09:51.088Z,22.40
2018-12-18T10:12:24.449Z,19.20
2018-12-18T10:14:53.607Z,25.17
2018-12-18T10:17:22.781Z,13.70
2018-12-18T10:19:51.934Z,15.53
2018-12-18T10:22:21.127Z,11.30
2018-12-18T10:24:50.307Z,13.20
2018-12-18T10:27:19.686Z,11.40
2018-12-18T10:29:49.240Z,10.33
2018-12-18T10:32:18.458Z,13.03
2018-12-18T10:34:47.623Z,8.00
2018-12-18T10:37:16.801Z,26.80
2018-12-18T10:39:45.988Z,11.63
2018-12-18T10:42:15.140Z,8.90
2018-12-18T10:44:44.306Z,7.80
2018-12-18T10:47:13.477Z,7.23
2018-12-18T10:49:42.632Z,7.77
2018-12-18T10:52:12.066Z,7.40
2018-12-18T10:54:41.236Z,6.60
2018-12-18T10:57:10.416Z,6.80
2018-12-18T10:59:39.579Z,7.90
2018-12-18T11:02:09.025Z,7.37
2018-12-18T11:04:38.782Z,6.40
2018-12-18T11:07:07.970Z,6.17
2018-12-18T11:09:37.151Z,6.47
2018-12-18T11:12:06.361Z,6.37
2018-12-18T11:14:35.561Z,5.93
2018-12-18T11:17:04.744Z,6.60
2018-12-18T11:19:33.971Z,7.70
2018-12-18T11:22:03.168Z,8.10
2018-12-18T11:24:32.316Z,6.50
2018-12-18T11:27:01.513Z,5.93
2018-12-18T11:29:30.686Z,6.90
2018-12-18T11:32:02.742Z,6.80
2018-12-18T11:34:31.943Z,6.53
2018-12-18T11:37:01.110Z,6.13
2018-12-18T11:39:30.265Z,5.80
2018-12-18T11:41:59.433Z,6.13
2018-12-18T11:44:28.597Z,5.63
2018-12-18T11:46:58.040Z,6.73
2018-12-18T11:49:27.210Z,6.10
2018-12-18T11:51:56.811Z,5.83
2018-12-18T11:54:25.978Z,6.20
2018-12-18T11:56:55.177Z,5.83
2018-12-18T11:59:24.329Z,5.30
2018-12-18T12:01:53.501Z,5.90
2018-12-18T12:04:22.675Z,5.37
2018-12-18T12:06:51.839Z,6.73
2018-12-18T12:09:22.020Z,5.97
2018-12-18T12:11:51.194Z,6.13
2018-12-18T12:14:21.288Z,5.80
2018-12-18T12:16:50.452Z,5.50
2018-12-18T12:19:19.648Z,9.30
2018-12-18T12:21:48.820Z,5.27
2018-12-18T12:24:24.596Z,6.70
2018-12-18T12:26:57.965Z,5.27
2018-12-18T12:29:27.145Z,5.30
2018-12-18T12:31:56.360Z,4.67
2018-12-18T12:34:25.536Z,5.07
2018-12-18T12:36:55.072Z,6.47
2018-12-18T12:39:24.265Z,7.37
2018-12-18T12:41:53.549Z,4.77
2018-12-18T12:44:22.836Z,5.20
2018-12-18T12:46:51.993Z,5.03
2018-12-18T12:49:25.762Z,10.03
2018-12-18T12:51:55.503Z,10.20
2018-12-18T12:54:25.742Z,6.47
2018-12-18T12:56:55.329Z,16.23
2018-12-18T12:59:24.812Z,17.93
2018-12-18T13:01:54.079Z,16.77
2018-12-18T13:04:23.258Z,15.70
2018-12-18T13:06:52.504Z,15.30
2018-12-18T13:09:21.761Z,10.90
2018-12-18T13:11:51.018Z,14.03
2018-12-18T13:14:20.196Z,25.37
2018-12-18T13:16:49.408Z,39.40
2018-12-18T13:19:18.643Z,45.27
2018-12-18T13:21:47.874Z,24.07
2018-12-18T13:24:17.166Z,55.13
2018-12-18T13:26:46.359Z,19.87
2018-12-18T13:29:15.585Z,79.67
2018-12-18T13:31:45.564Z,19.10
2018-12-18T13:34:14.781Z,18.40
2018-12-18T13:36:44.043Z,18.07
2018-12-18T13:39:13.245Z,24.73
2018-12-18T13:41:42.502Z,20.87
2018-12-18T13:44:11.702Z,15.87
2018-12-18T13:46:41.535Z,19.70
2018-12-18T13:49:11.706Z,16.20
2018-12-18T13:51:40.993Z,11.20
2018-12-18T13:54:10.157Z,10.40
2018-12-18T13:56:39.429Z,11.40
2018-12-18T13:59:08.619Z,10.40
2018-12-18T14:01:37.879Z,11.50
2018-12-18T14:04:07.121Z,13.53
2018-12-18T14:06:36.334Z,9.60
2018-12-18T14:09:09.191Z,9.70
2018-12-18T14:11:38.444Z,9.93
2018-12-18T14:14:14.383Z,10.97
2018-12-18T14:16:43.606Z,10.33
2018-12-18T14:19:12.833Z,10.50
2018-12-18T14:21:42.107Z,9.07
2018-12-18T14:24:11.361Z,9.83
2018-12-18T14:26:40.609Z,9.43
2018-12-18T14:29:09.856Z,9.80
2018-12-18T14:31:39.071Z,10.53
2018-12-18T14:34:08.319Z,9.90
2018-12-18T14:36:38.302Z,10.90
2018-12-18T14:39:08.088Z,10.40
2018-12-18T14:41:39.362Z,11.83
2018-12-18T14:44:09.647Z,12.00
2018-12-18T14:46:38.873Z,11.97
2018-12-18T14:49:08.145Z,12.47
2018-12-18T14:51:37.448Z,16.40
2018-12-18T14:54:06.700Z,20.67
2018-12-18T14:56:36.357Z,13.70
2018-12-18T14:59:05.620Z,14.70
2018-12-18T15:01:34.884Z,18.43
2018-12-18T15:04:04.312Z,16.63
2018-12-18T15:06:33.570Z,18.83
2018-12-18T15:09:02.865Z,18.70
2018-12-18T15:11:34.185Z,19.03
2018-12-18T15:14:03.439Z,21.43
2018-12-18T15:16:32.770Z,22.13
2018-12-18T15:19:02.069Z,21.50
2018-12-18T15:21:31.462Z,25.73
2018-12-18T15:24:00.727Z,23.20
2018-12-18T15:26:29.992Z,21.43
2018-12-18T15:28:59.228Z,21.20
2018-12-18T15:31:28.495Z,20.20
2018-12-18T15:33:57.757Z,18.23
2018-12-18T15:36:26.987Z,19.27
2018-12-18T15:38:56.269Z,20.33
2018-12-18T15:41:25.521Z,21.00
2018-12-18T15:43:54.777Z,19.87
2018-12-18T15:46:24.075Z,20.87
2018-12-18T15:48:53.344Z,33.87
2018-12-18T15:51:22.629Z,22.03
2018-12-18T15:53:53.010Z,21.90
2018-12-18T15:56:22.287Z,21.17
2018-12-18T15:58:51.573Z,38.00
2018-12-18T16:01:20.877Z,19.60
2018-12-18T16:03:50.143Z,19.33
2018-12-18T16:06:19.406Z,20.27
2018-12-18T16:08:48.688Z,31.17
2018-12-18T16:11:17.984Z,30.07
2018-12-18T16:13:47.286Z,24.63
2018-12-18T16:16:16.991Z,25.87
2018-12-18T16:18:46.311Z,25.30
2018-12-18T16:21:15.602Z,23.77
2018-12-18T16:23:44.956Z,18.30
2018-12-18T16:26:14.268Z,18.20
2018-12-18T16:28:43.543Z,17.57
2018-12-18T16:31:12.810Z,19.20
2018-12-18T16:33:42.113Z,31.07
2018-12-18T16:36:11.378Z,21.43
2018-12-18T16:38:40.673Z,19.70
2018-12-18T16:41:10.949Z,19.40
2018-12-18T16:43:40.236Z,17.53
2018-12-18T16:46:09.634Z,18.20
2018-12-18T16:48:38.945Z,17.60
2018-12-18T16:51:08.287Z,16.73
2018-12-18T16:53:37.595Z,18.17
2018-12-18T16:56:07.041Z,17.63
2018-12-18T16:58:36.334Z,21.00
2018-12-18T17:01:05.600Z,17.10
2018-12-18T17:03:34.937Z,17.40
2018-12-18T17:06:04.236Z,17.77
2018-12-18T17:08:33.530Z,18.50
2018-12-18T17:11:02.829Z,18.47
2018-12-18T17:13:32.146Z,160.30
2018-12-18T17:16:01.417Z,55.90
2018-12-18T17:18:30.687Z,20.50
2018-12-18T17:20:59.988Z,17.13
2018-12-18T17:23:29.285Z,16.17
2018-12-18T17:25:58.603Z,25.53
2018-12-18T17:28:27.891Z,20.87
2018-12-18T17:30:57.167Z,26.45
2018-12-18T17:33:26.447Z,21.83
2018-12-18T17:35:55.979Z,15.90
2018-12-18T17:38:25.737Z,15.30
2018-12-18T17:40:55.305Z,15.30
2018-12-18T17:43:25.195Z,20.90
2018-12-18T17:45:54.489Z,21.23
2018-12-18T17:48:23.768Z,19.57
2018-12-18T17:50:53.112Z,19.77
2018-12-18T17:53:22.966Z,30.57
2018-12-18T17:55:52.230Z,19.23
2018-12-18T17:58:21.538Z,22.50
2018-12-18T18:00:50.811Z,21.57
2018-12-18T18:03:21.206Z,23.07
2018-12-18T18:05:52.661Z,15.70
2018-12-18T18:08:21.993Z,17.33
2018-12-18T18:10:51.258Z,16.60
2018-12-18T18:13:21.145Z,16.23
2018-12-18T18:15:50.423Z,22.33
2018-12-18T18:18:19.817Z,20.43
2018-12-18T18:20:49.100Z,21.53
2018-12-18T18:23:18.360Z,28.37
2018-12-18T18:25:48.959Z,34.00
2018-12-18T18:28:18.922Z,29.00
2018-12-18T18:30:48.253Z,16.37
2018-12-18T18:33:17.512Z,17.50
2018-12-18T18:35:46.785Z,20.87
2018-12-18T18:38:16.048Z,17.30
2018-12-18T18:40:45.291Z,16.47
2018-12-18T18:43:14.573Z,15.47
2018-12-18T18:45:43.869Z,17.67
2018-12-18T18:48:13.153Z,16.23
2018-12-18T18:50:43.369Z,19.63
2018-12-18T18:53:12.705Z,19.63
2018-12-18T18:55:41.980Z,22.30
2018-12-18T18:58:11.398Z,19.00
2018-12-18T19:00:40.706Z,26.20
2018-12-18T19:03:10.007Z,22.53
2018-12-18T19:05:39.926Z,19.20
2018-12-18T19:08:09.206Z,19.33
2018-12-18T19:10:38.821Z,20.48
2018-12-18T19:13:08.977Z,20.93
2018-12-18T19:15:38.937Z,22.03
2018-12-18T19:18:08.214Z,27.50
2018-12-18T19:20:37.533Z,19.60
2018-12-18T19:23:06.799Z,24.00
2018-12-18T19:25:36.124Z,26.37
2018-12-18T19:28:05.425Z,24.70
2018-12-18T19:30:35.158Z,21.80
2018-12-18T19:33:04.570Z,20.67
2018-12-18T19:35:34.724Z,22.03
2018-12-18T19:38:04.094Z,26.30
2018-12-18T19:40:33.502Z,26.07
2018-12-18T19:43:02.805Z,26.27
2018-12-18T19:45:32.087Z,22.70
2018-12-18T19:48:01.708Z,20.63
2018-12-18T19:50:32.172Z,17.03
2018-12-18T19:53:01.432Z,21.40
2018-12-18T19:55:30.800Z,15.43
2018-12-18T19:58:00.094Z,17.83
2018-12-18T20:00:29.389Z,21.03
2018-12-18T20:02:58.661Z,18.93
2018-12-18T20:05:28.299Z,17.30
2018-12-18T20:07:57.613Z,31.93
2018-12-18T20:10:26.914Z,27.93
2018-12-18T20:12:56.237Z,40.03
2018-12-18T20:15:25.552Z,43.07
2018-12-18T20:17:55.937Z,27.07
2018-12-18T20:20:25.226Z,20.40
2018-12-18T20:22:54.499Z,22.07
2018-12-18T20:25:23.772Z,14.70
2018-12-18T20:27:54.169Z,13.97
2018-12-18T20:30:23.473Z,16.77
2018-12-18T20:32:53.694Z,19.97
2018-12-18T20:35:22.977Z,20.07
2018-12-18T20:37:52.328Z,21.73
2018-12-18T20:40:21.616Z,26.30
2018-12-18T20:42:50.906Z,26.90
2018-12-18T20:45:20.219Z,25.13
2018-12-18T20:47:49.518Z,29.87
2018-12-18T20:50:18.794Z,41.83
2018-12-18T20:52:48.102Z,38.03
2018-12-18T20:55:17.389Z,41.17
2018-12-18T20:57:46.680Z,31.03
2018-12-18T21:00:15.986Z,40.10
2018-12-18T21:02:46.176Z,40.30
2018-12-18T21:05:21.851Z,31.93
2018-12-18T21:07:51.252Z,29.50
2018-12-18T21:10:23.389Z,31.63
2018-12-18T21:12:58.248Z,29.47
2018-12-18T21:15:28.226Z,25.07
2018-12-18T21:17:58.405Z,21.47
2018-12-18T21:20:29.413Z,18.97
2018-12-18T21:22:59.978Z,17.80
2018-12-18T21:25:29.358Z,16.23
2018-12-18T21:28:00.048Z,12.80
2018-12-18T21:30:29.499Z,12.50
2018-12-18T21:33:00.741Z,13.30
2018-12-18T21:35:31.023Z,12.30
2018-12-18T21:38:00.496Z,21.37
2018-12-18T21:40:30.963Z,17.33
2018-12-18T21:43:00.342Z,15.30
2018-12-18T21:45:29.737Z,16.57
2018-12-18T21:47:59.272Z,15.40
2018-12-18T21:50:29.394Z,27.33
2018-12-18T21:53:00.054Z,21.80
2018-12-18T21:55:29.484Z,15.43
2018-12-18T21:57:58.813Z,41.57
2018-12-18T22:00:28.118Z,17.13
2018-12-18T22:02:57.488Z,17.37
2018-12-18T22:05:28.219Z,25.40
2018-12-18T22:07:57.548Z,30.20
2018-12-18T22:10:26.847Z,28.80
2018-12-18T22:12:56.103Z,29.43
2018-12-18T22:15:25.413Z,19.67
2018-12-18T22:17:55.778Z,26.70
2018-12-18T22:20:25.117Z,34.37
2018-12-18T22:22:54.396Z,19.60
2018-12-18T22:25:23.581Z,17.83
2018-12-18T22:27:52.961Z,24.07
2018-12-18T22:30:26.234Z,22.00
2018-12-18T22:32:57.011Z,27.43
2018-12-18T22:35:27.022Z,26.47
2018-12-18T22:37:56.228Z,22.90
2018-12-18T22:40:26.046Z,19.10
2018-12-18T22:42:55.207Z,19.57
2018-12-18T22:45:24.360Z,16.90
2018-12-18T22:47:53.532Z,17.27
2018-12-18T22:50:22.731Z,17.37
2018-12-18T22:52:51.906Z,18.73
2018-12-18T22:55:21.088Z,17.70
2018-12-18T22:57:50.284Z,15.97
2018-12-18T23:00:24.651Z,16.03
2018-12-18T23:02:58.423Z,13.70
2018-12-18T23:05:27.896Z,13.83
2018-12-18T23:07:57.067Z,13.40
2018-12-18T23:10:27.618Z,14.00
2018-12-18T23:12:57.411Z,14.97
2018-12-18T23:15:26.574Z,14.50
2018-12-18T23:17:55.733Z,14.53
2018-12-18T23:20:24.899Z,14.87
2018-12-18T23:22:54.122Z,14.87
2018-12-18T23:25:23.464Z,14.80
2018-12-18T23:27:54.635Z,15.33
2018-12-18T23:30:23.930Z,19.77
2018-12-18T23:32:53.092Z,18.83
2018-12-18T23:35:23.980Z,19.03
2018-12-18T23:37:53.279Z,17.77
2018-12-18T23:40:22.478Z,17.77
2018-12-18T23:42:51.635Z,17.43
2018-12-18T23:45:20.942Z,26.17
2018-12-18T23:47:50.118Z,18.80
2018-12-18T23:50:19.352Z,18.37
2018-12-18T23:52:48.504Z,18.03
2018-12-18T23:55:17.684Z,16.97
2018-12-18T23:57:47.369Z,18.00
